createdAt,value
2019-01-06T15:38:24.822Z,5.30
2019-01-06T15:41:31.017Z,4.77
2019-01-06T15:44:28.218Z,4.87
2019-01-06T15:47:34.567Z,4.60
2019-01-06T15:50:37.801Z,4.80
2019-01-06T15:53:29.435Z,5.20
2019-01-06T15:56:23.510Z,6.50
2019-01-06T15:59:20.403Z,5.03
2019-01-06T16:02:08.470Z,4.80
2019-01-06T16:05:01.469Z,5.13
2019-01-06T16:08:10.997Z,5.27
2019-01-06T16:11:17.291Z,6.20
2019-01-06T16:14:08.229Z,4.80
2019-01-06T16:17:01.532Z,4.90
2019-01-06T16:19:52.563Z,4.77
2019-01-06T16:22:44.476Z,9.00
2019-01-06T16:25:57.433Z,12.30
2019-01-06T16:28:38.479Z,8.13
2019-01-06T16:31:25.398Z,6.93
2019-01-06T16:34:16.391Z,5.33
2019-01-06T16:37:16.305Z,8.50
2019-01-06T16:40:19.481Z,5.30
2019-01-06T16:43:10.944Z,5.07
2019-01-06T16:45:57.654Z,4.10
2019-01-06T16:48:57.770Z,8.43
2019-01-06T16:51:47.842Z,8.17
2019-01-06T16:54:48.017Z,6.53
2019-01-06T16:57:48.132Z,5.90
2019-01-06T17:00:35.230Z,7.77
2019-01-06T17:03:21.846Z,11.93
2019-01-06T17:06:14.158Z,11.93
2019-01-06T17:09:07.839Z,10.70
2019-01-06T17:11:54.442Z,10.83
2019-01-06T17:14:41.238Z,11.80
2019-01-06T17:17:41.406Z,9.53
2019-01-06T17:20:32.082Z,12.97
2019-01-06T17:23:23.442Z,8.93
2019-01-06T17:26:11.507Z,12.00
2019-01-06T17:28:57.862Z,14.60
2019-01-06T17:31:42.020Z,14.47
2019-01-06T17:34:39.078Z,458.87
2019-01-06T17:37:38.780Z,453.83
2019-01-06T17:40:26.871Z,405.17
2019-01-06T17:43:16.259Z,375.40
2019-01-06T17:46:07.098Z,603.17
2019-01-06T17:49:00.734Z,727.13
2019-01-06T17:52:06.773Z,616.50
2019-01-06T17:54:54.830Z,556.13
2019-01-06T17:57:44.490Z,540.50
2019-01-06T18:00:31.302Z,513.93
2019-01-06T18:03:27.766Z,497.77
2019-01-06T18:06:14.798Z,451.17
2019-01-06T18:09:15.411Z,577.13
2019-01-06T18:11:59.456Z,1032.53
2019-01-06T18:14:53.533Z,945.57
2019-01-06T18:17:39.954Z,853.27
2019-01-06T18:20:26.381Z,797.50
2019-01-06T18:23:20.745Z,771.63
2019-01-06T18:26:11.453Z,736.33
2019-01-06T18:28:58.113Z,664.60
2019-01-06T18:31:44.861Z,731.73
2019-01-06T18:34:34.214Z,1069.00
2019-01-06T18:37:22.522Z,1041.73
2019-01-06T18:40:25.585Z,1042.33
